createdAt,value
2023-12-18T00:01:56.669Z,102844.41
2023-12-18T00:06:58.015Z,102849.63
2023-12-18T00:11:59.440Z,102841.69
2023-12-18T00:17:00.887Z,102831.84
2023-12-18T00:22:02.290Z,102807.16
2023-12-18T00:27:03.922Z,102811.50
2023-12-18T00:32:05.558Z,102815.13
2023-12-18T00:37:07.616Z,102810.91
2023-12-18T00:42:09.059Z,102800.34
2023-12-18T00:47:12.245Z,102804.69
2023-12-18T00:52:13.658Z,102807.22
2023-12-18T00:57:15.117Z,102811.50
2023-12-18T01:02:16.503Z,102818.00
2023-12-18T01:07:17.989Z,102821.25
2023-12-18T01:12:19.343Z,102810.44
2023-12-18T01:17:30.351Z,102814.38
2023-12-18T01:22:37.064Z,102809.38
2023-12-18T01:27:38.576Z,102816.75
2023-12-18T01:32:40.021Z,102811.84
2023-12-18T01:37:42.217Z,102816.44
2023-12-18T01:42:46.882Z,102821.19
2023-12-18T01:47:48.693Z,102821.69
2023-12-18T01:52:50.293Z,102830.59
2023-12-18T01:57:51.895Z,102824.22
2023-12-18T02:02:53.311Z,102824.47
2023-12-18T02:07:55.371Z,102831.34
2023-12-18T02:12:56.760Z,102818.56
2023-12-18T02:17:58.144Z,102825.53
2023-12-18T02:22:59.550Z,102828.28
2023-12-18T02:28:02.169Z,102840.16
2023-12-18T02:33:03.716Z,102834.56
2023-12-18T02:38:05.126Z,102824.34
2023-12-18T02:43:06.610Z,102819.28
2023-12-18T02:48:08.292Z,102831.47
2023-12-18T02:53:09.793Z,102826.16
2023-12-18T02:58:11.217Z,102826.28
2023-12-18T03:03:12.689Z,102824.06
2023-12-18T03:08:14.195Z,102823.22
2023-12-18T03:13:15.564Z,102820.84
2023-12-18T03:18:17.181Z,102826.91
2023-12-18T03:23:18.641Z,102827.94
2023-12-18T03:28:20.003Z,102822.38
2023-12-18T03:33:21.569Z,102825.13
2023-12-18T03:38:23.627Z,102823.72
2023-12-18T03:43:25.237Z,102809.38
2023-12-18T03:48:26.820Z,102806.72
2023-12-18T03:53:28.399Z,102817.41
2023-12-18T03:58:29.748Z,102804.16
2023-12-18T04:03:34.013Z,102812.56
2023-12-18T04:08:35.698Z,102813.47
2023-12-18T04:13:37.043Z,102800.88
2023-12-18T04:18:38.569Z,102789.63
2023-12-18T04:23:40.062Z,102788.19
2023-12-18T04:28:41.409Z,102786.59
2023-12-18T04:33:42.827Z,102778.81
2023-12-18T04:38:44.517Z,102779.75
2023-12-18T04:43:45.924Z,102777.69
2023-12-18T04:48:47.438Z,102762.69
2023-12-18T04:53:48.913Z,102765.25
2023-12-18T04:58:50.398Z,102762.69
2023-12-18T05:03:51.842Z,102751.53
2023-12-18T05:08:53.405Z,102755.19
2023-12-18T05:13:54.808Z,102751.72
2023-12-18T05:18:58.048Z,102760.28
2023-12-18T05:23:59.655Z,102759.25
2023-12-18T05:29:01.074Z,102757.00
2023-12-18T05:34:02.567Z,102742.44
2023-12-18T05:39:04.075Z,102732.94
2023-12-18T05:44:05.522Z,102748.69
2023-12-18T05:49:07.549Z,102759.59
2023-12-18T05:54:09.004Z,102757.00
2023-12-18T05:59:10.379Z,102761.41
2023-12-18T06:04:11.859Z,102772.84
2023-12-18T06:09:13.299Z,102774.59
2023-12-18T06:14:14.665Z,102767.34
2023-12-18T06:19:16.105Z,102762.44
2023-12-18T06:24:17.564Z,102772.69
2023-12-18T06:29:18.948Z,102782.13
2023-12-18T06:34:20.460Z,102787.34
2023-12-18T06:39:21.924Z,102789.75
2023-12-18T06:44:23.272Z,102788.00
2023-12-18T06:49:24.787Z,102781.09
2023-12-18T06:54:28.076Z,102791.56
2023-12-18T06:59:29.550Z,102787.09
2023-12-18T07:04:30.941Z,102789.34
2023-12-18T07:09:32.416Z,102796.03
2023-12-18T07:14:33.834Z,102799.94
2023-12-18T07:19:38.363Z,102803.47
2023-12-18T07:24:40.404Z,102799.16
2023-12-18T07:29:41.841Z,102797.38
2023-12-18T07:34:43.658Z,102794.63
2023-12-18T07:39:45.149Z,102794.91
2023-12-18T07:44:46.543Z,102797.31
2023-12-18T07:49:50.881Z,102796.88
2023-12-18T07:54:52.684Z,102797.59
2023-12-18T07:59:55.844Z,102803.09
2023-12-18T08:04:57.473Z,102802.63
2023-12-18T08:09:59.012Z,102806.31
2023-12-18T08:15:00.402Z,102807.72
2023-12-18T08:20:01.820Z,102810.41
2023-12-18T08:25:03.986Z,102807.72
2023-12-18T08:30:06.592Z,102804.78
2023-12-18T08:35:08.425Z,102811.03
2023-12-18T08:40:10.193Z,102804.63
2023-12-18T08:45:11.777Z,102810.88
2023-12-18T08:50:13.228Z,102813.28
2023-12-18T08:55:14.636Z,102810.84
2023-12-18T09:00:16.289Z,102805.94
2023-12-18T09:05:17.679Z,102805.34
2023-12-18T09:10:19.259Z,102807.22
2023-12-18T09:15:20.668Z,102796.44
2023-12-18T09:20:22.041Z,102783.47
2023-12-18T09:25:23.382Z,102769.81
2023-12-18T09:30:24.811Z,102769.69
2023-12-18T09:35:26.252Z,102766.00
2023-12-18T09:40:27.693Z,102773.81
2023-12-18T09:45:30.930Z,102768.13
2023-12-18T09:50:32.512Z,102772.16
2023-12-18T09:55:34.453Z,102762.00
2023-12-18T10:00:35.867Z,102747.56
2023-12-18T10:05:37.463Z,102750.28
2023-12-18T10:10:38.982Z,102743.78
2023-12-18T10:15:43.690Z,102742.44
2023-12-18T10:20:48.014Z,102735.00
2023-12-18T10:25:49.880Z,102728.81
2023-12-18T10:30:52.914Z,102722.34
2023-12-18T10:35:54.369Z,102714.88
2023-12-18T10:40:56.368Z,102699.59
2023-12-18T10:45:58.269Z,102696.13
2023-12-18T10:51:01.031Z,102692.16
2023-12-18T10:56:05.147Z,102696.66
2023-12-18T11:01:08.635Z,102691.59
2023-12-18T11:06:11.346Z,102679.13
2023-12-18T11:11:14.127Z,102671.25
2023-12-18T11:16:24.445Z,102665.50
2023-12-18T11:21:25.881Z,102655.16
2023-12-18T11:26:27.927Z,102645.84
2023-12-18T11:31:31.172Z,102647.19
2023-12-18T11:36:32.611Z,102637.81
2023-12-18T11:41:41.988Z,102631.97
2023-12-18T11:46:45.306Z,102625.13
2023-12-18T11:51:51.101Z,102607.72
2023-12-18T11:56:52.603Z,102599.34
2023-12-18T12:01:54.231Z,102590.50
2023-12-18T12:06:56.387Z,102586.81
2023-12-18T12:11:58.359Z,102583.38
2023-12-18T12:17:04.076Z,102575.28
2023-12-18T12:22:05.548Z,102553.94
2023-12-18T12:27:08.061Z,102555.16
2023-12-18T12:32:14.506Z,102564.03
2023-12-18T12:37:17.469Z,102549.31
2023-12-18T12:42:19.129Z,102544.06
2023-12-18T12:47:20.546Z,102551.56
2023-12-18T12:52:21.966Z,102542.44
2023-12-18T12:57:23.346Z,102536.91
2023-12-18T13:02:25.324Z,102524.34
2023-12-18T13:07:26.723Z,102523.75
2023-12-18T13:12:28.205Z,102514.75
2023-12-18T13:17:29.618Z,102509.84
2023-12-18T13:22:31.074Z,102512.94
2023-12-18T13:27:32.739Z,102510.63
2023-12-18T13:32:34.163Z,102517.19
2023-12-18T13:37:36.262Z,102514.31
2023-12-18T13:42:37.722Z,102508.28
2023-12-18T13:47:39.239Z,102507.19
2023-12-18T13:52:40.697Z,102500.69
2023-12-18T13:57:48.039Z,102493.41
2023-12-18T14:02:50.547Z,102498.16
2023-12-18T14:07:51.980Z,102490.50
2023-12-18T14:12:53.460Z,102489.75
2023-12-18T14:17:55.054Z,102488.66
2023-12-18T14:22:56.817Z,102485.84
2023-12-18T14:27:58.259Z,102477.75
2023-12-18T14:32:59.823Z,102476.47
2023-12-18T14:38:01.297Z,102485.94
2023-12-18T14:43:02.727Z,102481.69
2023-12-18T14:48:04.746Z,102483.72
2023-12-18T14:53:07.907Z,102503.28
2023-12-18T14:58:09.440Z,102486.50
2023-12-18T15:03:11.433Z,102494.50
2023-12-18T15:08:12.839Z,102478.56
2023-12-18T15:13:14.213Z,102486.19
2023-12-18T15:18:15.770Z,102472.31
2023-12-18T15:23:17.245Z,102469.88
2023-12-18T15:28:18.754Z,102458.94
2023-12-18T15:33:20.601Z,102459.59
2023-12-18T15:38:22.121Z,102457.06
2023-12-18T15:43:23.697Z,102478.41
2023-12-18T15:48:25.321Z,102495.91
2023-12-18T15:53:28.764Z,102474.41
2023-12-18T15:58:30.191Z,102476.16
2023-12-18T16:03:31.690Z,102467.63
2023-12-18T16:08:33.524Z,102455.22
2023-12-18T16:13:34.862Z,102439.22
2023-12-18T16:18:36.320Z,102418.81
2023-12-18T16:23:37.780Z,102435.78
2023-12-18T16:28:39.814Z,102422.91
2023-12-18T16:33:41.260Z,102426.16
2023-12-18T16:38:45.345Z,102416.88
2023-12-18T16:43:46.976Z,102406.78
2023-12-18T16:48:48.442Z,102415.28
2023-12-18T16:53:50.003Z,102421.88
2023-12-18T16:58:51.392Z,102438.94
2023-12-18T17:03:56.458Z,102419.63
2023-12-18T17:08:58.972Z,102412.09
2023-12-18T17:14:00.399Z,102411.06
2023-12-18T17:19:01.873Z,102430.78
2023-12-18T17:24:04.493Z,102419.69
2023-12-18T17:29:06.075Z,102414.72
2023-12-18T17:34:07.821Z,102426.78
2023-12-18T17:39:09.271Z,102420.16
2023-12-18T17:44:10.660Z,102421.56
2023-12-18T17:49:12.453Z,102396.47
2023-12-18T17:54:14.321Z,102389.84
2023-12-18T17:59:15.705Z,102388.56
2023-12-18T18:04:17.225Z,102387.00
2023-12-18T18:09:18.857Z,102384.75
2023-12-18T18:14:20.395Z,102400.59
2023-12-18T18:19:21.871Z,102406.47
2023-12-18T18:24:23.439Z,102416.00
2023-12-18T18:29:24.862Z,102421.28
2023-12-18T18:34:26.410Z,102405.31
2023-12-18T18:39:27.846Z,102405.03
2023-12-18T18:44:29.342Z,102432.84
2023-12-18T18:49:31.121Z,102458.69
2023-12-18T18:54:33.061Z,102457.03
2023-12-18T18:59:35.184Z,102474.09
2023-12-18T19:04:36.900Z,102474.31
2023-12-18T19:09:38.394Z,102489.19
2023-12-18T19:14:39.784Z,102481.66
2023-12-18T19:19:41.595Z,102450.72
2023-12-18T19:24:43.417Z,102438.75
2023-12-18T19:29:45.013Z,102418.56
2023-12-18T19:34:47.119Z,102392.88
2023-12-18T19:39:48.748Z,102398.84
2023-12-18T19:44:50.317Z,102421.34
2023-12-18T19:49:51.878Z,102415.75
2023-12-18T19:54:53.569Z,102402.72
2023-12-18T19:59:55.255Z,102384.59
2023-12-18T20:04:56.897Z,102406.75
2023-12-18T20:09:58.727Z,102387.50
2023-12-18T20:15:00.520Z,102395.09
2023-12-18T20:20:02.188Z,102402.59
2023-12-18T20:25:03.883Z,102410.03
2023-12-18T20:30:05.904Z,102394.63
2023-12-18T20:35:07.855Z,102379.50
2023-12-18T20:40:10.761Z,102367.41
2023-12-18T20:45:12.234Z,102349.41
2023-12-18T20:50:13.581Z,102367.13
2023-12-18T20:55:15.031Z,102366.78
2023-12-18T21:00:24.050Z,102345.56
2023-12-18T21:05:27.569Z,102333.00
2023-12-18T21:10:30.962Z,102335.59
2023-12-18T21:15:32.356Z,102347.88
2023-12-18T21:20:34.043Z,102342.28
2023-12-18T21:25:36.579Z,102350.75
2023-12-18T21:30:38.261Z,102344.44
2023-12-18T21:35:39.717Z,102354.91
2023-12-18T21:40:41.075Z,102364.09
2023-12-18T21:45:42.507Z,102354.34
2023-12-18T21:50:43.889Z,102366.38
2023-12-18T21:55:46.060Z,102381.81
2023-12-18T22:00:47.575Z,102407.16
2023-12-18T22:05:49.187Z,102396.78
2023-12-18T22:10:50.664Z,102356.53
2023-12-18T22:15:52.050Z,102345.25
2023-12-18T22:21:01.094Z,102363.34
2023-12-18T22:26:09.788Z,102347.34
2023-12-18T22:31:11.274Z,102337.78
2023-12-18T22:36:12.761Z,102338.25
2023-12-18T22:41:14.270Z,102315.97
2023-12-18T22:46:15.674Z,102304.09
2023-12-18T22:51:17.203Z,102287.84
2023-12-18T22:56:18.708Z,102274.03
2023-12-18T23:01:20.194Z,102274.84
2023-12-18T23:06:21.657Z,102295.91
2023-12-18T23:11:23.611Z,102306.56
2023-12-18T23:16:25.144Z,102292.22
2023-12-18T23:21:26.962Z,102260.00
2023-12-18T23:26:29.116Z,102230.03
2023-12-18T23:31:30.763Z,102220.44
2023-12-18T23:36:32.186Z,102244.41
2023-12-18T23:41:33.817Z,102246.06
2023-12-18T23:46:35.217Z,102261.19
2023-12-18T23:51:37.235Z,102253.47
2023-12-18T23:56:39.244Z,102248.13
